sensor_id;sensor_type;location;lat;lon;timestamp;P1;durP1;ratioP1;P2;durP2;ratioP2
30539;SDS011;17321;46.312;4.776;2023-08-30T00:02:07;3.28;;;1.80;;
30539;SDS011;17321;46.312;4.776;2023-08-30T00:04:34;3.03;;;1.40;;
30539;SDS011;17321;46.312;4.776;2023-08-30T00:07:00;8.85;;;1.65;;
30539;SDS011;17321;46.312;4.776;2023-08-30T00:09:26;5.22;;;1.45;;
30539;SDS011;17321;46.312;4.776;2023-08-30T00:11:52;4.95;;;1.65;;
30539;SDS011;17321;46.312;4.776;2023-08-30T00:14:18;5.28;;;1.40;;
30539;SDS011;17321;46.312;4.776;2023-08-30T00:16:44;4.15;;;1.55;;
30539;SDS011;17321;46.312;4.776;2023-08-30T00:19:11;2.78;;;1.50;;
30539;SDS011;17321;46.312;4.776;2023-08-30T00:21:37;2.85;;;1.48;;
30539;SDS011;17321;46.312;4.776;2023-08-30T00:24:03;1.65;;;1.40;;
30539;SDS011;17321;46.312;4.776;2023-08-30T00:26:29;3.50;;;1.63;;
30539;SDS011;17321;46.312;4.776;2023-08-30T00:28:55;3.38;;;1.30;;
30539;SDS011;17321;46.312;4.776;2023-08-30T00:31:21;6.18;;;1.95;;
30539;SDS011;17321;46.312;4.776;2023-08-30T00:33:48;4.35;;;1.70;;
30539;SDS011;17321;46.312;4.776;2023-08-30T00:36:14;4.82;;;1.58;;
30539;SDS011;17321;46.312;4.776;2023-08-30T00:38:43;3.42;;;1.80;;
30539;SDS011;17321;46.312;4.776;2023-08-30T00:41:09;1.95;;;1.30;;
30539;SDS011;17321;46.312;4.776;2023-08-30T00:43:35;2.95;;;1.77;;
30539;SDS011;17321;46.312;4.776;2023-08-30T00:46:01;2.50;;;1.17;;
30539;SDS011;17321;46.312;4.776;2023-08-30T00:48:27;6.57;;;1.63;;
30539;SDS011;17321;46.312;4.776;2023-08-30T00:50:54;2.08;;;1.60;;
30539;SDS011;17321;46.312;4.776;2023-08-30T00:53:20;2.92;;;1.30;;
30539;SDS011;17321;46.312;4.776;2023-08-30T00:55:46;10.43;;;1.50;;
30539;SDS011;17321;46.312;4.776;2023-08-30T00:58:12;1.98;;;1.35;;
30539;SDS011;17321;46.312;4.776;2023-08-30T01:00:39;1.55;;;1.45;;
30539;SDS011;17321;46.312;4.776;2023-08-30T01:03:05;1.75;;;1.30;;
30539;SDS011;17321;46.312;4.776;2023-08-30T01:05:32;2.58;;;1.30;;
30539;SDS011;17321;46.312;4.776;2023-08-30T01:07:59;2.78;;;1.60;;
30539;SDS011;17321;46.312;4.776;2023-08-30T01:10:27;2.38;;;1.30;;
30539;SDS011;17321;46.312;4.776;2023-08-30T01:12:59;2.80;;;1.50;;
30539;SDS011;17321;46.312;4.776;2023-08-30T01:15:27;4.13;;;1.58;;
30539;SDS011;17321;46.312;4.776;2023-08-30T01:17:53;3.58;;;1.50;;
30539;SDS011;17321;46.312;4.776;2023-08-30T01:20:20;2.63;;;1.60;;
30539;SDS011;17321;46.312;4.776;2023-08-30T01:23:07;3.22;;;1.40;;
30539;SDS011;17321;46.312;4.776;2023-08-30T01:25:55;1.85;;;1.35;;
30539;SDS011;17321;46.312;4.776;2023-08-30T01:28:24;3.00;;;1.33;;
30539;SDS011;17321;46.312;4.776;2023-08-30T01:30:52;4.30;;;1.33;;
30539;SDS011;17321;46.312;4.776;2023-08-30T01:33:22;7.50;;;2.17;;
30539;SDS011;17321;46.312;4.776;2023-08-30T01:35:48;5.00;;;1.63;;
30539;SDS011;17321;46.312;4.776;2023-08-30T01:38:15;3.15;;;1.75;;
30539;SDS011;17321;46.312;4.776;2023-08-30T01:40:42;2.70;;;1.83;;
30539;SDS011;17321;46.312;4.776;2023-08-30T01:43:08;3.70;;;2.05;;
30539;SDS011;17321;46.312;4.776;2023-08-30T01:45:36;5.30;;;1.70;;
30539;SDS011;17321;46.312;4.776;2023-08-30T01:48:04;2.13;;;1.90;;
30539;SDS011;17321;46.312;4.776;2023-08-30T01:50:32;5.43;;;1.63;;
30539;SDS011;17321;46.312;4.776;2023-08-30T01:52:58;1.75;;;1.27;;
30539;SDS011;17321;46.312;4.776;2023-08-30T01:55:25;4.93;;;1.50;;
30539;SDS011;17321;46.312;4.776;2023-08-30T01:57:52;2.08;;;1.50;;
30539;SDS011;17321;46.312;4.776;2023-08-30T02:00:18;1.88;;;1.30;;
30539;SDS011;17321;46.312;4.776;2023-08-30T02:02:45;1.40;;;1.30;;
30539;SDS011;17321;46.312;4.776;2023-08-30T02:05:11;4.90;;;1.90;;
30539;SDS011;17321;46.312;4.776;2023-08-30T02:08:19;3.30;;;1.70;;
30539;SDS011;17321;46.312;4.776;2023-08-30T02:10:34;6.65;;;1.90;;
30539;SDS011;17321;46.312;4.776;2023-08-30T02:13:00;7.03;;;1.75;;
30539;SDS011;17321;46.312;4.776;2023-08-30T02:15:27;3.17;;;1.60;;
30539;SDS011;17321;46.312;4.776;2023-08-30T02:17:55;3.80;;;1.55;;
30539;SDS011;17321;46.312;4.776;2023-08-30T02:20:21;1.92;;;1.63;;
30539;SDS011;17321;46.312;4.776;2023-08-30T02:22:47;2.78;;;1.60;;
30539;SDS011;17321;46.312;4.776;2023-08-30T02:25:13;5.80;;;1.92;;
30539;SDS011;17321;46.312;4.776;2023-08-30T02:27:40;5.57;;;1.67;;
30539;SDS011;17321;46.312;4.776;2023-08-30T02:30:06;6.50;;;1.67;;
30539;SDS011;17321;46.312;4.776;2023-08-30T02:32:32;3.72;;;1.45;;
30539;SDS011;17321;46.312;4.776;2023-08-30T02:34:59;4.85;;;1.73;;
30539;SDS011;17321;46.312;4.776;2023-08-30T02:37:25;2.20;;;1.45;;
30539;SDS011;17321;46.312;4.776;2023-08-30T02:39:51;2.17;;;1.48;;
30539;SDS011;17321;46.312;4.776;2023-08-30T02:42:17;2.88;;;1.70;;
30539;SDS011;17321;46.312;4.776;2023-08-30T02:44:43;4.90;;;1.45;;
30539;SDS011;17321;46.312;4.776;2023-08-30T02:47:09;2.60;;;1.30;;
30539;SDS011;17321;46.312;4.776;2023-08-30T02:49:35;2.17;;;1.50;;
30539;SDS011;17321;46.312;4.776;2023-08-30T02:52:02;2.40;;;1.55;;
30539;SDS011;17321;46.312;4.776;2023-08-30T02:54:28;2.50;;;1.70;;
30539;SDS011;17321;46.312;4.776;2023-08-30T02:56:54;4.05;;;1.48;;
30539;SDS011;17321;46.312;4.776;2023-08-30T02:59:20;2.33;;;1.60;;
30539;SDS011;17321;46.312;4.776;2023-08-30T03:01:46;4.18;;;1.63;;
30539;SDS011;17321;46.312;4.776;2023-08-30T03:04:12;2.25;;;1.30;;
30539;SDS011;17321;46.312;4.776;2023-08-30T03:06:39;2.47;;;1.40;;
30539;SDS011;17321;46.312;4.776;2023-08-30T03:09:05;1.90;;;1.50;;
30539;SDS011;17321;46.312;4.776;2023-08-30T03:11:32;3.72;;;1.55;;
30539;SDS011;17321;46.312;4.776;2023-08-30T03:13:58;3.20;;;1.67;;
30539;SDS011;17321;46.312;4.776;2023-08-30T03:16:25;2.47;;;1.85;;
30539;SDS011;17321;46.312;4.776;2023-08-30T03:18:51;2.17;;;1.75;;
30539;SDS011;17321;46.312;4.776;2023-08-30T03:21:17;2.28;;;1.73;;
30539;SDS011;17321;46.312;4.776;2023-08-30T03:23:43;5.78;;;2.20;;
30539;SDS011;17321;46.312;4.776;2023-08-30T03:26:10;2.05;;;1.67;;
30539;SDS011;17321;46.312;4.776;2023-08-30T03:28:36;2.20;;;1.60;;
30539;SDS011;17321;46.312;4.776;2023-08-30T03:31:10;2.92;;;1.95;;
30539;SDS011;17321;46.312;4.776;2023-08-30T03:33:36;3.10;;;2.03;;
30539;SDS011;17321;46.312;4.776;2023-08-30T03:36:02;2.65;;;1.70;;
30539;SDS011;17321;46.312;4.776;2023-08-30T03:38:28;2.63;;;1.70;;
30539;SDS011;17321;46.312;4.776;2023-08-30T03:40:54;2.22;;;1.60;;
30539;SDS011;17321;46.312;4.776;2023-08-30T03:43:20;2.53;;;1.90;;
30539;SDS011;17321;46.312;4.776;2023-08-30T03:45:47;2.20;;;1.70;;
30539;SDS011;17321;46.312;4.776;2023-08-30T03:48:13;2.40;;;2.20;;
30539;SDS011;17321;46.312;4.776;2023-08-30T03:50:39;4.05;;;2.28;;
30539;SDS011;17321;46.312;4.776;2023-08-30T03:53:05;4.10;;;1.75;;
30539;SDS011;17321;46.312;4.776;2023-08-30T03:55:31;1.52;;;1.42;;
30539;SDS011;17321;46.312;4.776;2023-08-30T03:57:59;2.85;;;1.92;;
30539;SDS011;17321;46.312;4.776;2023-08-30T04:00:25;6.78;;;1.70;;
30539;SDS011;17321;46.312;4.776;2023-08-30T04:02:51;3.97;;;2.28;;
30539;SDS011;17321;46.312;4.776;2023-08-30T04:05:17;2.33;;;1.75;;
30539;SDS011;17321;46.312;4.776;2023-08-30T04:07:43;3.38;;;2.03;;
30539;SDS011;17321;46.312;4.776;2023-08-30T04:10:09;2.33;;;2.13;;
30539;SDS011;17321;46.312;4.776;2023-08-30T04:12:35;2.13;;;1.80;;
30539;SDS011;17321;46.312;4.776;2023-08-30T04:15:02;4.00;;;1.83;;
30539;SDS011;17321;46.312;4.776;2023-08-30T04:17:28;2.38;;;1.50;;
30539;SDS011;17321;46.312;4.776;2023-08-30T04:19:54;5.63;;;1.85;;
30539;SDS011;17321;46.312;4.776;2023-08-30T04:22:20;1.90;;;1.70;;
30539;SDS011;17321;46.312;4.776;2023-08-30T04:24:46;5.25;;;2.10;;
30539;SDS011;17321;46.312;4.776;2023-08-30T04:27:12;6.10;;;1.80;;
30539;SDS011;17321;46.312;4.776;2023-08-30T04:29:39;3.72;;;1.85;;
30539;SDS011;17321;46.312;4.776;2023-08-30T04:32:05;2.88;;;1.75;;
30539;SDS011;17321;46.312;4.776;2023-08-30T04:34:31;2.28;;;1.88;;
30539;SDS011;17321;46.312;4.776;2023-08-30T04:36:58;2.05;;;1.60;;
30539;SDS011;17321;46.312;4.776;2023-08-30T04:39:24;1.42;;;1.33;;
30539;SDS011;17321;46.312;4.776;2023-08-30T04:41:50;2.65;;;1.98;;
30539;SDS011;17321;46.312;4.776;2023-08-30T04:44:17;3.95;;;2.00;;
30539;SDS011;17321;46.312;4.776;2023-08-30T04:46:44;2.83;;;2.05;;
30539;SDS011;17321;46.312;4.776;2023-08-30T04:49:10;2.72;;;1.67;;
30539;SDS011;17321;46.312;4.776;2023-08-30T04:51:36;3.20;;;1.60;;
30539;SDS011;17321;46.312;4.776;2023-08-30T04:54:02;2.33;;;1.58;;
30539;SDS011;17321;46.312;4.776;2023-08-30T04:56:29;2.58;;;1.90;;
30539;SDS011;17321;46.312;4.776;2023-08-30T04:58:55;7.43;;;1.95;;
30539;SDS011;17321;46.312;4.776;2023-08-30T05:01:22;2.83;;;2.03;;
30539;SDS011;17321;46.312;4.776;2023-08-30T05:03:48;2.85;;;1.75;;
30539;SDS011;17321;46.312;4.776;2023-08-30T05:06:14;4.63;;;1.58;;
30539;SDS011;17321;46.312;4.776;2023-08-30T05:08:41;2.75;;;1.70;;
30539;SDS011;17321;46.312;4.776;2023-08-30T05:11:07;3.22;;;1.60;;
30539;SDS011;17321;46.312;4.776;2023-08-30T05:13:33;2.67;;;1.73;;
30539;SDS011;17321;46.312;4.776;2023-08-30T05:16:00;4.22;;;1.90;;
30539;SDS011;17321;46.312;4.776;2023-08-30T05:18:26;4.32;;;1.77;;
30539;SDS011;17321;46.312;4.776;2023-08-30T05:20:52;5.70;;;2.13;;
30539;SDS011;17321;46.312;4.776;2023-08-30T05:23:18;5.60;;;2.40;;
30539;SDS011;17321;46.312;4.776;2023-08-30T05:25:44;4.35;;;2.28;;
30539;SDS011;17321;46.312;4.776;2023-08-30T05:28:11;2.22;;;2.03;;
30539;SDS011;17321;46.312;4.776;2023-08-30T05:30:40;4.20;;;2.13;;
30539;SDS011;17321;46.312;4.776;2023-08-30T05:33:06;3.45;;;2.45;;
30539;SDS011;17321;46.312;4.776;2023-08-30T05:35:32;7.50;;;2.20;;
30539;SDS011;17321;46.312;4.776;2023-08-30T05:37:58;6.00;;;2.15;;
30539;SDS011;17321;46.312;4.776;2023-08-30T05:40:24;4.10;;;1.65;;
30539;SDS011;17321;46.312;4.776;2023-08-30T05:42:50;3.78;;;2.05;;
30539;SDS011;17321;46.312;4.776;2023-08-30T05:45:17;4.88;;;1.95;;
30539;SDS011;17321;46.312;4.776;2023-08-30T05:47:43;1.70;;;1.40;;
30539;SDS011;17321;46.312;4.776;2023-08-30T05:50:09;1.85;;;1.75;;
30539;SDS011;17321;46.312;4.776;2023-08-30T05:52:35;2.53;;;1.80;;
30539;SDS011;17321;46.312;4.776;2023-08-30T05:55:06;3.45;;;2.17;;
30539;SDS011;17321;46.312;4.776;2023-08-30T05:57:32;4.25;;;2.00;;
30539;SDS011;17321;46.312;4.776;2023-08-30T05:59:58;5.00;;;2.00;;
30539;SDS011;17321;46.312;4.776;2023-08-30T06:02:25;5.35;;;2.00;;
30539;SDS011;17321;46.312;4.776;2023-08-30T06:04:51;6.20;;;2.30;;
30539;SDS011;17321;46.312;4.776;2023-08-30T06:07:17;2.97;;;2.05;;
30539;SDS011;17321;46.312;4.776;2023-08-30T06:09:43;8.75;;;1.70;;
30539;SDS011;17321;46.312;4.776;2023-08-30T06:12:09;18.23;;;2.78;;
30539;SDS011;17321;46.312;4.776;2023-08-30T06:14:36;4.85;;;2.15;;
30539;SDS011;17321;46.312;4.776;2023-08-30T06:17:02;6.97;;;2.10;;
30539;SDS011;17321;46.312;4.776;2023-08-30T06:19:28;5.03;;;2.15;;
30539;SDS011;17321;46.312;4.776;2023-08-30T06:21:54;4.80;;;1.80;;
30539;SDS011;17321;46.312;4.776;2023-08-30T06:24:20;7.93;;;1.85;;
30539;SDS011;17321;46.312;4.776;2023-08-30T06:26:47;5.22;;;1.92;;
30539;SDS011;17321;46.312;4.776;2023-08-30T06:29:13;7.50;;;2.15;;
30539;SDS011;17321;46.312;4.776;2023-08-30T06:31:39;1.80;;;1.70;;
30539;SDS011;17321;46.312;4.776;2023-08-30T06:34:07;3.40;;;2.15;;
30539;SDS011;17321;46.312;4.776;2023-08-30T06:36:33;2.83;;;1.73;;
30539;SDS011;17321;46.312;4.776;2023-08-30T06:38:59;2.35;;;1.67;;
30539;SDS011;17321;46.312;4.776;2023-08-30T06:41:25;6.57;;;1.98;;
30539;SDS011;17321;46.312;4.776;2023-08-30T06:43:51;3.08;;;2.00;;
30539;SDS011;17321;46.312;4.776;2023-08-30T06:46:18;4.43;;;1.95;;
30539;SDS011;17321;46.312;4.776;2023-08-30T06:48:44;2.08;;;1.70;;
30539;SDS011;17321;46.312;4.776;2023-08-30T06:51:10;6.40;;;1.83;;
30539;SDS011;17321;46.312;4.776;2023-08-30T06:53:37;8.35;;;2.05;;
30539;SDS011;17321;46.312;4.776;2023-08-30T06:56:03;4.55;;;1.90;;
30539;SDS011;17321;46.312;4.776;2023-08-30T06:58:29;4.30;;;2.10;;
30539;SDS011;17321;46.312;4.776;2023-08-30T07:00:56;4.05;;;2.85;;
30539;SDS011;17321;46.312;4.776;2023-08-30T07:03:23;9.70;;;2.42;;
30539;SDS011;17321;46.312;4.776;2023-08-30T07:05:52;6.10;;;1.65;;
30539;SDS011;17321;46.312;4.776;2023-08-30T07:08:19;3.88;;;1.90;;
30539;SDS011;17321;46.312;4.776;2023-08-30T07:10:45;10.88;;;2.22;;
30539;SDS011;17321;46.312;4.776;2023-08-30T07:13:11;3.70;;;1.48;;
30539;SDS011;17321;46.312;4.776;2023-08-30T07:15:40;3.38;;;1.63;;
30539;SDS011;17321;46.312;4.776;2023-08-30T07:18:08;2.67;;;1.80;;
30539;SDS011;17321;46.312;4.776;2023-08-30T07:20:34;16.65;;;2.60;;
30539;SDS011;17321;46.312;4.776;2023-08-30T07:23:01;9.05;;;1.70;;
30539;SDS011;17321;46.312;4.776;2023-08-30T07:25:29;6.88;;;1.73;;
30539;SDS011;17321;46.312;4.776;2023-08-30T07:27:56;4.32;;;1.80;;
30539;SDS011;17321;46.312;4.776;2023-08-30T07:30:22;2.20;;;1.60;;
30539;SDS011;17321;46.312;4.776;2023-08-30T07:32:48;4.50;;;1.70;;
30539;SDS011;17321;46.312;4.776;2023-08-30T07:35:14;2.33;;;1.90;;
30539;SDS011;17321;46.312;4.776;2023-08-30T07:37:40;4.00;;;1.70;;
30539;SDS011;17321;46.312;4.776;2023-08-30T07:40:07;4.57;;;2.03;;
30539;SDS011;17321;46.312;4.776;2023-08-30T07:42:33;1.33;;;1.20;;
30539;SDS011;17321;46.312;4.776;2023-08-30T07:44:59;1.90;;;1.70;;
30539;SDS011;17321;46.312;4.776;2023-08-30T07:47:25;3.00;;;1.70;;
30539;SDS011;17321;46.312;4.776;2023-08-30T07:49:52;3.83;;;1.92;;
30539;SDS011;17321;46.312;4.776;2023-08-30T07:52:18;2.83;;;2.00;;
30539;SDS011;17321;46.312;4.776;2023-08-30T07:54:44;1.98;;;1.75;;
30539;SDS011;17321;46.312;4.776;2023-08-30T07:57:10;3.17;;;1.65;;
30539;SDS011;17321;46.312;4.776;2023-08-30T07:59:36;2.90;;;1.88;;
30539;SDS011;17321;46.312;4.776;2023-08-30T08:02:03;3.15;;;1.70;;
30539;SDS011;17321;46.312;4.776;2023-08-30T08:04:31;3.97;;;2.10;;
30539;SDS011;17321;46.312;4.776;2023-08-30T08:06:57;7.78;;;1.73;;
30539;SDS011;17321;46.312;4.776;2023-08-30T08:09:23;6.57;;;1.77;;
30539;SDS011;17321;46.312;4.776;2023-08-30T08:11:49;3.83;;;1.98;;
30539;SDS011;17321;46.312;4.776;2023-08-30T08:14:15;1.70;;;1.60;;
30539;SDS011;17321;46.312;4.776;2023-08-30T08:16:42;1.98;;;1.75;;
30539;SDS011;17321;46.312;4.776;2023-08-30T08:19:08;4.32;;;1.70;;
30539;SDS011;17321;46.312;4.776;2023-08-30T08:21:34;4.25;;;1.95;;
30539;SDS011;17321;46.312;4.776;2023-08-30T08:24:01;5.13;;;2.05;;
30539;SDS011;17321;46.312;4.776;2023-08-30T08:26:27;5.97;;;1.98;;
30539;SDS011;17321;46.312;4.776;2023-08-30T08:28:53;3.40;;;1.77;;
30539;SDS011;17321;46.312;4.776;2023-08-30T08:31:20;3.22;;;1.60;;
30539;SDS011;17321;46.312;4.776;2023-08-30T08:33:49;6.18;;;1.85;;
30539;SDS011;17321;46.312;4.776;2023-08-30T08:36:16;4.78;;;1.88;;
30539;SDS011;17321;46.312;4.776;2023-08-30T08:38:42;15.68;;;2.10;;
30539;SDS011;17321;46.312;4.776;2023-08-30T08:41:08;2.30;;;1.75;;
30539;SDS011;17321;46.312;4.776;2023-08-30T08:43:36;4.60;;;1.70;;
30539;SDS011;17321;46.312;4.776;2023-08-30T08:46:03;5.28;;;1.70;;
30539;SDS011;17321;46.312;4.776;2023-08-30T08:48:31;7.35;;;2.15;;
30539;SDS011;17321;46.312;4.776;2023-08-30T08:50:59;4.25;;;1.77;;
30539;SDS011;17321;46.312;4.776;2023-08-30T08:53:26;3.90;;;1.67;;
30539;SDS011;17321;46.312;4.776;2023-08-30T08:55:52;5.45;;;2.08;;
30539;SDS011;17321;46.312;4.776;2023-08-30T08:58:18;3.85;;;1.65;;
30539;SDS011;17321;46.312;4.776;2023-08-30T09:00:44;2.53;;;1.60;;
30539;SDS011;17321;46.312;4.776;2023-08-30T09:03:11;4.55;;;1.85;;
30539;SDS011;17321;46.312;4.776;2023-08-30T09:05:37;3.50;;;1.58;;
30539;SDS011;17321;46.312;4.776;2023-08-30T09:08:04;6.88;;;1.83;;
30539;SDS011;17321;46.312;4.776;2023-08-30T09:10:33;2.72;;;2.00;;
30539;SDS011;17321;46.312;4.776;2023-08-30T09:13:01;4.25;;;1.98;;
30539;SDS011;17321;46.312;4.776;2023-08-30T09:15:30;3.58;;;1.83;;
30539;SDS011;17321;46.312;4.776;2023-08-30T09:17:57;2.25;;;1.70;;
30539;SDS011;17321;46.312;4.776;2023-08-30T09:20:23;3.17;;;1.88;;
30539;SDS011;17321;46.312;4.776;2023-08-30T09:22:49;6.68;;;2.15;;
30539;SDS011;17321;46.312;4.776;2023-08-30T09:25:28;5.10;;;2.13;;
30539;SDS011;17321;46.312;4.776;2023-08-30T09:27:58;4.95;;;1.42;;
30539;SDS011;17321;46.312;4.776;2023-08-30T09:30:24;2.75;;;1.42;;
30539;SDS011;17321;46.312;4.776;2023-08-30T09:32:51;5.35;;;1.90;;
30539;SDS011;17321;46.312;4.776;2023-08-30T09:35:17;4.03;;;1.90;;
30539;SDS011;17321;46.312;4.776;2023-08-30T09:37:46;4.75;;;1.77;;
30539;SDS011;17321;46.312;4.776;2023-08-30T09:42:42;3.10;;;1.38;;
30539;SDS011;17321;46.312;4.776;2023-08-30T09:48:03;3.45;;;1.50;;
30539;SDS011;17321;46.312;4.776;2023-08-30T09:50:33;4.10;;;1.70;;
30539;SDS011;17321;46.312;4.776;2023-08-30T09:53:02;2.78;;;1.33;;
30539;SDS011;17321;46.312;4.776;2023-08-30T09:55:31;2.25;;;1.55;;
30539;SDS011;17321;46.312;4.776;2023-08-30T09:57:57;3.30;;;1.60;;
30539;SDS011;17321;46.312;4.776;2023-08-30T10:00:23;3.72;;;3.33;;
30539;SDS011;17321;46.312;4.776;2023-08-30T10:02:50;4.15;;;3.20;;
30539;SDS011;17321;46.312;4.776;2023-08-30T10:05:16;4.57;;;3.65;;
30539;SDS011;17321;46.312;4.776;2023-08-30T10:07:42;8.50;;;2.80;;
30539;SDS011;17321;46.312;4.776;2023-08-30T10:10:09;4.22;;;2.05;;
30539;SDS011;17321;46.312;4.776;2023-08-30T10:12:36;4.57;;;2.60;;
30539;SDS011;17321;46.312;4.776;2023-08-30T10:15:02;4.50;;;2.58;;
30539;SDS011;17321;46.312;4.776;2023-08-30T10:17:33;6.32;;;1.75;;
30539;SDS011;17321;46.312;4.776;2023-08-30T10:19:59;2.42;;;1.38;;
30539;SDS011;17321;46.312;4.776;2023-08-30T10:22:27;1.27;;;1.17;;
30539;SDS011;17321;46.312;4.776;2023-08-30T10:24:57;1.45;;;1.35;;
30539;SDS011;17321;46.312;4.776;2023-08-30T10:27:25;2.53;;;1.60;;
30539;SDS011;17321;46.312;4.776;2023-08-30T10:29:52;1.60;;;1.50;;
30539;SDS011;17321;46.312;4.776;2023-08-30T10:32:22;2.10;;;1.40;;
30539;SDS011;17321;46.312;4.776;2023-08-30T10:34:48;4.40;;;1.27;;
30539;SDS011;17321;46.312;4.776;2023-08-30T10:37:15;4.63;;;1.65;;
30539;SDS011;17321;46.312;4.776;2023-08-30T10:39:42;2.70;;;1.38;;
30539;SDS011;17321;46.312;4.776;2023-08-30T10:42:09;7.57;;;1.52;;
30539;SDS011;17321;46.312;4.776;2023-08-30T10:44:46;2.80;;;1.60;;
30539;SDS011;17321;46.312;4.776;2023-08-30T10:47:19;3.78;;;2.00;;
30539;SDS011;17321;46.312;4.776;2023-08-30T10:49:48;2.13;;;1.80;;
30539;SDS011;17321;46.312;4.776;2023-08-30T10:52:14;2.95;;;1.45;;
30539;SDS011;17321;46.312;4.776;2023-08-30T10:54:41;1.90;;;1.38;;
30539;SDS011;17321;46.312;4.776;2023-08-30T10:57:15;2.80;;;1.52;;
30539;SDS011;17321;46.312;4.776;2023-08-30T11:00:27;3.30;;;1.83;;
30539;SDS011;17321;46.312;4.776;2023-08-30T11:02:29;1.95;;;1.70;;
30539;SDS011;17321;46.312;4.776;2023-08-30T11:04:56;2.38;;;1.95;;
30539;SDS011;17321;46.312;4.776;2023-08-30T11:07:24;1.80;;;1.70;;
30539;SDS011;17321;46.312;4.776;2023-08-30T11:09:53;4.18;;;1.98;;
30539;SDS011;17321;46.312;4.776;2023-08-30T11:12:19;4.63;;;1.77;;
30539;SDS011;17321;46.312;4.776;2023-08-30T11:14:51;2.25;;;2.05;;
30539;SDS011;17321;46.312;4.776;2023-08-30T11:17:17;1.40;;;1.30;;
30539;SDS011;17321;46.312;4.776;2023-08-30T11:19:44;3.20;;;1.70;;
30539;SDS011;17321;46.312;4.776;2023-08-30T11:22:10;2.38;;;1.90;;
30539;SDS011;17321;46.312;4.776;2023-08-30T11:24:36;1.88;;;1.55;;
30539;SDS011;17321;46.312;4.776;2023-08-30T11:27:02;1.95;;;1.40;;
30539;SDS011;17321;46.312;4.776;2023-08-30T11:29:29;2.85;;;1.80;;
30539;SDS011;17321;46.312;4.776;2023-08-30T11:31:55;2.22;;;2.03;;
30539;SDS011;17321;46.312;4.776;2023-08-30T11:34:21;6.82;;;2.22;;
30539;SDS011;17321;46.312;4.776;2023-08-30T11:36:48;1.90;;;1.67;;
30539;SDS011;17321;46.312;4.776;2023-08-30T11:39:18;2.13;;;1.63;;
30539;SDS011;17321;46.312;4.776;2023-08-30T11:41:44;3.30;;;2.13;;
30539;SDS011;17321;46.312;4.776;2023-08-30T11:44:10;1.98;;;1.42;;
30539;SDS011;17321;46.312;4.776;2023-08-30T11:46:36;2.33;;;1.63;;
30539;SDS011;17321;46.312;4.776;2023-08-30T11:49:03;2.25;;;2.05;;
30539;SDS011;17321;46.312;4.776;2023-08-30T11:51:29;2.25;;;1.88;;
30539;SDS011;17321;46.312;4.776;2023-08-30T11:53:55;3.20;;;2.20;;
30539;SDS011;17321;46.312;4.776;2023-08-30T11:56:22;2.08;;;1.77;;
30539;SDS011;17321;46.312;4.776;2023-08-30T11:58:48;4.90;;;2.38;;
30539;SDS011;17321;46.312;4.776;2023-08-30T12:01:16;2.22;;;1.95;;
30539;SDS011;17321;46.312;4.776;2023-08-30T12:03:44;3.05;;;2.03;;
30539;SDS011;17321;46.312;4.776;2023-08-30T12:06:15;2.30;;;2.10;;
30539;SDS011;17321;46.312;4.776;2023-08-30T12:08:42;2.25;;;2.05;;
30539;SDS011;17321;46.312;4.776;2023-08-30T12:11:20;4.60;;;2.38;;
30539;SDS011;17321;46.312;4.776;2023-08-30T12:13:46;2.80;;;2.33;;
30539;SDS011;17321;46.312;4.776;2023-08-30T12:16:16;2.78;;;2.35;;
30539;SDS011;17321;46.312;4.776;2023-08-30T12:18:42;3.50;;;2.47;;
30539;SDS011;17321;46.312;4.776;2023-08-30T12:21:08;2.95;;;2.42;;
30539;SDS011;17321;46.312;4.776;2023-08-30T12:23:35;4.82;;;2.35;;
30539;SDS011;17321;46.312;4.776;2023-08-30T12:26:04;4.78;;;3.20;;
30539;SDS011;17321;46.312;4.776;2023-08-30T12:28:34;4.55;;;2.15;;
30539;SDS011;17321;46.312;4.776;2023-08-30T12:31:00;2.22;;;1.98;;
30539;SDS011;17321;46.312;4.776;2023-08-30T12:33:27;2.70;;;1.95;;
30539;SDS011;17321;46.312;4.776;2023-08-30T12:35:54;10.95;;;2.70;;
30539;SDS011;17321;46.312;4.776;2023-08-30T12:38:21;2.83;;;2.50;;
30539;SDS011;17321;46.312;4.776;2023-08-30T12:40:47;2.50;;;2.30;;
30539;SDS011;17321;46.312;4.776;2023-08-30T12:43:14;3.40;;;2.78;;
30539;SDS011;17321;46.312;4.776;2023-08-30T12:45:41;5.03;;;3.20;;
30539;SDS011;17321;46.312;4.776;2023-08-30T12:48:08;3.38;;;2.65;;
30539;SDS011;17321;46.312;4.776;2023-08-30T12:50:38;3.88;;;2.90;;
30539;SDS011;17321;46.312;4.776;2023-08-30T12:53:04;6.15;;;3.17;;
30539;SDS011;17321;46.312;4.776;2023-08-30T12:55:31;2.60;;;2.40;;
30539;SDS011;17321;46.312;4.776;2023-08-30T12:57:59;5.28;;;3.17;;
30539;SDS011;17321;46.312;4.776;2023-08-30T13:00:25;4.13;;;2.70;;
30539;SDS011;17321;46.312;4.776;2023-08-30T13:02:52;5.38;;;2.80;;
30539;SDS011;17321;46.312;4.776;2023-08-30T13:05:18;2.50;;;2.30;;
30539;SDS011;17321;46.312;4.776;2023-08-30T13:07:44;4.00;;;2.67;;
30539;SDS011;17321;46.312;4.776;2023-08-30T13:10:10;3.72;;;2.70;;
30539;SDS011;17321;46.312;4.776;2023-08-30T13:12:37;5.65;;;2.45;;
30539;SDS011;17321;46.312;4.776;2023-08-30T13:15:03;2.63;;;2.42;;
30539;SDS011;17321;46.312;4.776;2023-08-30T13:17:30;5.18;;;2.50;;
30539;SDS011;17321;46.312;4.776;2023-08-30T13:19:56;7.70;;;2.80;;
30539;SDS011;17321;46.312;4.776;2023-08-30T13:22:23;42.70;;;4.32;;
30539;SDS011;17321;46.312;4.776;2023-08-30T13:24:49;3.78;;;2.58;;
30539;SDS011;17321;46.312;4.776;2023-08-30T13:27:16;3.20;;;2.00;;
30539;SDS011;17321;46.312;4.776;2023-08-30T13:29:42;3.10;;;2.38;;
30539;SDS011;17321;46.312;4.776;2023-08-30T13:32:08;96.93;;;5.78;;
30539;SDS011;17321;46.312;4.776;2023-08-30T13:34:34;16.02;;;2.63;;
30539;SDS011;17321;46.312;4.776;2023-08-30T13:37:00;6.60;;;2.50;;
30539;SDS011;17321;46.312;4.776;2023-08-30T13:39:26;5.22;;;2.60;;
30539;SDS011;17321;46.312;4.776;2023-08-30T13:41:52;2.67;;;2.38;;
30539;SDS011;17321;46.312;4.776;2023-08-30T13:44:18;3.47;;;2.20;;
30539;SDS011;17321;46.312;4.776;2023-08-30T13:46:44;4.55;;;2.10;;
30539;SDS011;17321;46.312;4.776;2023-08-30T13:49:13;2.40;;;2.20;;
30539;SDS011;17321;46.312;4.776;2023-08-30T13:51:39;3.15;;;2.28;;
30539;SDS011;17321;46.312;4.776;2023-08-30T13:54:06;4.10;;;2.45;;
30539;SDS011;17321;46.312;4.776;2023-08-30T13:56:32;33.67;;;3.92;;
30539;SDS011;17321;46.312;4.776;2023-08-30T13:58:58;4.93;;;2.63;;
30539;SDS011;17321;46.312;4.776;2023-08-30T14:01:24;3.50;;;2.20;;
30539;SDS011;17321;46.312;4.776;2023-08-30T14:03:50;3.35;;;2.20;;
30539;SDS011;17321;46.312;4.776;2023-08-30T14:06:16;2.17;;;1.98;;
30539;SDS011;17321;46.312;4.776;2023-08-30T14:08:42;2.85;;;2.28;;
30539;SDS011;17321;46.312;4.776;2023-08-30T14:11:09;17.20;;;3.00;;
30539;SDS011;17321;46.312;4.776;2023-08-30T14:13:35;10.25;;;9.18;;
30539;SDS011;17321;46.312;4.776;2023-08-30T14:16:01;62.90;;;7.93;;
30539;SDS011;17321;46.312;4.776;2023-08-30T14:18:31;5.35;;;4.00;;
30539;SDS011;17321;46.312;4.776;2023-08-30T14:20:57;21.10;;;3.13;;
30539;SDS011;17321;46.312;4.776;2023-08-30T14:23:26;9.43;;;2.95;;
30539;SDS011;17321;46.312;4.776;2023-08-30T14:25:59;8.15;;;2.60;;
30539;SDS011;17321;46.312;4.776;2023-08-30T14:28:25;5.05;;;4.55;;
30539;SDS011;17321;46.312;4.776;2023-08-30T14:30:52;6.63;;;4.70;;
30539;SDS011;17321;46.312;4.776;2023-08-30T14:33:18;4.97;;;4.47;;
30539;SDS011;17321;46.312;4.776;2023-08-30T14:35:44;4.88;;;3.22;;
30539;SDS011;17321;46.312;4.776;2023-08-30T14:38:11;4.47;;;3.53;;
30539;SDS011;17321;46.312;4.776;2023-08-30T14:40:37;2.50;;;2.22;;
30539;SDS011;17321;46.312;4.776;2023-08-30T14:43:03;7.30;;;2.33;;
30539;SDS011;17321;46.312;4.776;2023-08-30T14:45:30;2.40;;;2.15;;
30539;SDS011;17321;46.312;4.776;2023-08-30T14:47:56;9.75;;;2.80;;
30539;SDS011;17321;46.312;4.776;2023-08-30T14:50:22;9.02;;;2.50;;
30539;SDS011;17321;46.312;4.776;2023-08-30T14:52:49;6.25;;;2.60;;